Sorell, Australia
Current Conditions -  °F | °C
As of 8:30 AM on Saturday 20 Dec 2014 (Local Time) from YMHB Reporting Station
Scattered Clouds Scattered Clouds  
Wind Chill: 64°   Ceiling: Unl
Heat Index: 64°   Visibility: 6mi
Dew Point: 48°   Wind: 13mph
Humidity: 56%   Direction: 310°NW
Pressure: 29.85"   Gusts: NA
Location:  42.78°S, 147.56°E
Report Text: YMHB 192130Z 31011KT 9999 SCT045 18/09 Q1011
Loading
Personal Weather Stations






























Interactive Weather Map New forecast layout! Learn more

10-Day Weather Forecast

Advertisements
Track Severe Weather on mobile